<?xml version="1.0" encoding="UTF-8" standalone="no" ?>
<gpx xmlns="http://www.topografix.com/GPX/1/1" xmlns:xsi="http://www.w3.org/2001/XMLSchema-instance" xsi:schemaLocation="http://www.topografix.com/GPX/1/1 http://www.topografix.com/GPX/1/1/gpx.xsd" version="1.1" creator="VisuGPX - https://www.visugpx.com">
  <metadata>
    <name>Argens- 001</name>
    <desc><![CDATA[départ = base  Le Muy]]></desc>
  </metadata>
  <wpt lat="43.46402" lon="6.56987">
    <ele>15</ele>
  </wpt>
  <wpt lat="43.4473" lon="6.54337">
    <ele>14</ele>
  </wpt>
  <trk>
    <name><![CDATA[Argens- 001_1]]></name>
    <trkseg>
      <trkpt lat="43.46402" lon="6.56987">
        <ele>15</ele>
        <time>2011-08-15T11:49:58Z</time>
      </trkpt>
      <trkpt lat="43.46411" lon="6.5699">
        <ele>15</ele>
        <time>2011-08-15T11:50:00Z</time>
      </trkpt>
      <trkpt lat="43.46404" lon="6.56982">
        <ele>15</ele>
        <time>2011-08-15T11:51:08Z</time>
      </trkpt>
      <trkpt lat="43.46396" lon="6.56973">
        <ele>15</ele>
        <time>2011-08-15T11:51:15Z</time>
      </trkpt>
      <trkpt lat="43.46388" lon="6.56966">
        <ele>15</ele>
        <time>2011-08-15T11:51:22Z</time>
      </trkpt>
      <trkpt lat="43.46379" lon="6.5696">
        <ele>15</ele>
        <time>2011-08-15T11:51:29Z</time>
      </trkpt>
      <trkpt lat="43.46371" lon="6.56956">
        <ele>15</ele>
        <time>2011-08-15T11:51:36Z</time>
      </trkpt>
      <trkpt lat="43.46363" lon="6.56962">
        <ele>15</ele>
        <time>2011-08-15T11:52:00Z</time>
      </trkpt>
      <trkpt lat="43.46356" lon="6.56954">
        <ele>15</ele>
        <time>2011-08-15T11:52:54Z</time>
      </trkpt>
      <trkpt lat="43.46347" lon="6.56948">
        <ele>22</ele>
        <time>2011-08-15T11:53:03Z</time>
      </trkpt>
      <trkpt lat="43.46341" lon="6.56939">
        <ele>15</ele>
        <time>2011-08-15T11:53:22Z</time>
      </trkpt>
      <trkpt lat="43.46341" lon="6.56926">
        <ele>15</ele>
        <time>2011-08-15T11:56:22Z</time>
      </trkpt>
      <trkpt lat="43.46331" lon="6.56927">
        <ele>15</ele>
        <time>2011-08-15T11:56:27Z</time>
      </trkpt>
      <trkpt lat="43.46324" lon="6.56934">
        <ele>23</ele>
        <time>2011-08-15T11:56:31Z</time>
      </trkpt>
      <trkpt lat="43.46313" lon="6.56934">
        <ele>32</ele>
        <time>2011-08-15T11:56:38Z</time>
      </trkpt>
      <trkpt lat="43.46303" lon="6.56936">
        <ele>38</ele>
        <time>2011-08-15T11:56:44Z</time>
      </trkpt>
      <trkpt lat="43.46294" lon="6.56935">
        <ele>38</ele>
        <time>2011-08-15T11:56:50Z</time>
      </trkpt>
      <trkpt lat="43.46288" lon="6.56925">
        <ele>27</ele>
        <time>2011-08-15T11:57:01Z</time>
      </trkpt>
      <trkpt lat="43.46278" lon="6.56925">
        <ele>27</ele>
        <time>2011-08-15T11:57:07Z</time>
      </trkpt>
      <trkpt lat="43.46273" lon="6.56914">
        <ele>8</ele>
        <time>2011-08-15T11:57:17Z</time>
      </trkpt>
      <trkpt lat="43.46264" lon="6.5691">
        <ele>13.8</ele>
        <time>2011-08-15T11:57:28Z</time>
      </trkpt>
      <trkpt lat="43.46255" lon="6.56911">
        <ele>13.8</ele>
        <time>2011-08-15T11:57:35Z</time>
      </trkpt>
      <trkpt lat="43.46245" lon="6.56913">
        <ele>14</ele>
        <time>2011-08-15T11:57:40Z</time>
      </trkpt>
      <trkpt lat="43.46236" lon="6.56914">
        <ele>14.4</ele>
        <time>2011-08-15T11:57:44Z</time>
      </trkpt>
      <trkpt lat="43.46226" lon="6.56913">
        <ele>14.7</ele>
        <time>2011-08-15T11:57:48Z</time>
      </trkpt>
      <trkpt lat="43.46217" lon="6.56917">
        <ele>15.3</ele>
        <time>2011-08-15T11:57:52Z</time>
      </trkpt>
      <trkpt lat="43.46207" lon="6.56926">
        <ele>17.6</ele>
        <time>2011-08-15T11:57:55Z</time>
      </trkpt>
      <trkpt lat="43.46197" lon="6.5692">
        <ele>10</ele>
        <time>2011-08-15T11:58:07Z</time>
      </trkpt>
      <trkpt lat="43.46185" lon="6.5692">
        <ele>21</ele>
        <time>2011-08-15T11:58:13Z</time>
      </trkpt>
      <trkpt lat="43.46174" lon="6.56922">
        <ele>28</ele>
        <time>2011-08-15T11:58:16Z</time>
      </trkpt>
      <trkpt lat="43.46164" lon="6.56925">
        <ele>36</ele>
        <time>2011-08-15T11:58:19Z</time>
      </trkpt>
      <trkpt lat="43.46153" lon="6.56927">
        <ele>53</ele>
        <time>2011-08-15T11:58:27Z</time>
      </trkpt>
      <trkpt lat="43.46143" lon="6.56927">
        <ele>53</ele>
        <time>2011-08-15T11:58:33Z</time>
      </trkpt>
      <trkpt lat="43.46133" lon="6.56934">
        <ele>53</ele>
        <time>2011-08-15T11:58:40Z</time>
      </trkpt>
      <trkpt lat="43.46122" lon="6.56933">
        <ele>53</ele>
        <time>2011-08-15T11:58:46Z</time>
      </trkpt>
      <trkpt lat="43.46113" lon="6.56933">
        <ele>53</ele>
        <time>2011-08-15T11:58:50Z</time>
      </trkpt>
      <trkpt lat="43.46101" lon="6.56933">
        <ele>53</ele>
        <time>2011-08-15T11:58:55Z</time>
      </trkpt>
      <trkpt lat="43.46092" lon="6.56931">
        <ele>53</ele>
        <time>2011-08-15T11:59:00Z</time>
      </trkpt>
      <trkpt lat="43.46082" lon="6.56928">
        <ele>53</ele>
        <time>2011-08-15T11:59:06Z</time>
      </trkpt>
      <trkpt lat="43.46073" lon="6.56928">
        <ele>40</ele>
        <time>2011-08-15T11:59:14Z</time>
      </trkpt>
      <trkpt lat="43.46063" lon="6.56927">
        <ele>29</ele>
        <time>2011-08-15T11:59:21Z</time>
      </trkpt>
      <trkpt lat="43.46055" lon="6.56922">
        <ele>29</ele>
        <time>2011-08-15T11:59:29Z</time>
      </trkpt>
      <trkpt lat="43.46046" lon="6.56925">
        <ele>18</ele>
        <time>2011-08-15T11:59:34Z</time>
      </trkpt>
      <trkpt lat="43.46038" lon="6.56919">
        <ele>18</ele>
        <time>2011-08-15T11:59:42Z</time>
      </trkpt>
      <trkpt lat="43.46027" lon="6.56918">
        <ele>24</ele>
        <time>2011-08-15T11:59:46Z</time>
      </trkpt>
      <trkpt lat="43.46016" lon="6.56916">
        <ele>31</ele>
        <time>2011-08-15T11:59:53Z</time>
      </trkpt>
      <trkpt lat="43.46007" lon="6.56916">
        <ele>31</ele>
        <time>2011-08-15T11:59:56Z</time>
      </trkpt>
      <trkpt lat="43.45998" lon="6.5691">
        <ele>31</ele>
        <time>2011-08-15T11:59:59Z</time>
      </trkpt>
      <trkpt lat="43.45988" lon="6.56909">
        <ele>43</ele>
        <time>2011-08-15T12:00:06Z</time>
      </trkpt>
      <trkpt lat="43.45978" lon="6.56907">
        <ele>54</ele>
        <time>2011-08-15T12:00:10Z</time>
      </trkpt>
      <trkpt lat="43.45967" lon="6.56904">
        <ele>59</ele>
        <time>2011-08-15T12:00:17Z</time>
      </trkpt>
      <trkpt lat="43.45958" lon="6.56899">
        <ele>42</ele>
        <time>2011-08-15T12:00:25Z</time>
      </trkpt>
      <trkpt lat="43.45955" lon="6.56887">
        <ele>34</ele>
        <time>2011-08-15T12:00:32Z</time>
      </trkpt>
      <trkpt lat="43.45947" lon="6.56879">
        <ele>34</ele>
        <time>2011-08-15T12:00:38Z</time>
      </trkpt>
      <trkpt lat="43.45938" lon="6.56871">
        <ele>41</ele>
        <time>2011-08-15T12:00:44Z</time>
      </trkpt>
      <trkpt lat="43.4593" lon="6.56867">
        <ele>41</ele>
        <time>2011-08-15T12:00:48Z</time>
      </trkpt>
      <trkpt lat="43.45927" lon="6.56854">
        <ele>41</ele>
        <time>2011-08-15T12:00:55Z</time>
      </trkpt>
      <trkpt lat="43.45919" lon="6.56845">
        <ele>32</ele>
        <time>2011-08-15T12:01:02Z</time>
      </trkpt>
      <trkpt lat="43.45912" lon="6.56837">
        <ele>25</ele>
        <time>2011-08-15T12:01:07Z</time>
      </trkpt>
      <trkpt lat="43.45906" lon="6.56826">
        <ele>25</ele>
        <time>2011-08-15T12:01:13Z</time>
      </trkpt>
      <trkpt lat="43.459" lon="6.56815">
        <ele>14</ele>
        <time>2011-08-15T12:01:18Z</time>
      </trkpt>
      <trkpt lat="43.45893" lon="6.56804">
        <ele>14</ele>
        <time>2011-08-15T12:01:25Z</time>
      </trkpt>
      <trkpt lat="43.45888" lon="6.56794">
        <ele>14</ele>
        <time>2011-08-15T12:01:33Z</time>
      </trkpt>
      <trkpt lat="43.45878" lon="6.56789">
        <ele>14</ele>
        <time>2011-08-15T12:01:39Z</time>
      </trkpt>
      <trkpt lat="43.45869" lon="6.56784">
        <ele>14</ele>
        <time>2011-08-15T12:01:44Z</time>
      </trkpt>
      <trkpt lat="43.45861" lon="6.56777">
        <ele>23</ele>
        <time>2011-08-15T12:01:50Z</time>
      </trkpt>
      <trkpt lat="43.45853" lon="6.5677">
        <ele>23</ele>
        <time>2011-08-15T12:01:56Z</time>
      </trkpt>
      <trkpt lat="43.45844" lon="6.56762">
        <ele>23</ele>
        <time>2011-08-15T12:02:02Z</time>
      </trkpt>
      <trkpt lat="43.45838" lon="6.56751">
        <ele>23</ele>
        <time>2011-08-15T12:02:08Z</time>
      </trkpt>
      <trkpt lat="43.45829" lon="6.56746">
        <ele>23</ele>
        <time>2011-08-15T12:02:14Z</time>
      </trkpt>
      <trkpt lat="43.45819" lon="6.56736">
        <ele>18</ele>
        <time>2011-08-15T12:02:19Z</time>
      </trkpt>
      <trkpt lat="43.45814" lon="6.56723">
        <ele>18</ele>
        <time>2011-08-15T12:02:27Z</time>
      </trkpt>
      <trkpt lat="43.45805" lon="6.56719">
        <ele>18</ele>
        <time>2011-08-15T12:02:34Z</time>
      </trkpt>
      <trkpt lat="43.45798" lon="6.56708">
        <ele>18</ele>
        <time>2011-08-15T12:02:42Z</time>
      </trkpt>
      <trkpt lat="43.45793" lon="6.56698">
        <ele>12</ele>
        <time>2011-08-15T12:02:48Z</time>
      </trkpt>
      <trkpt lat="43.45785" lon="6.56688">
        <ele>12</ele>
        <time>2011-08-15T12:02:53Z</time>
      </trkpt>
      <trkpt lat="43.45776" lon="6.56683">
        <ele>20</ele>
        <time>2011-08-15T12:03:00Z</time>
      </trkpt>
      <trkpt lat="43.45766" lon="6.56678">
        <ele>20</ele>
        <time>2011-08-15T12:03:07Z</time>
      </trkpt>
      <trkpt lat="43.45758" lon="6.56671">
        <ele>26</ele>
        <time>2011-08-15T12:03:12Z</time>
      </trkpt>
      <trkpt lat="43.4575" lon="6.56663">
        <ele>26</ele>
        <time>2011-08-15T12:03:19Z</time>
      </trkpt>
      <trkpt lat="43.45742" lon="6.56657">
        <ele>16</ele>
        <time>2011-08-15T12:03:26Z</time>
      </trkpt>
      <trkpt lat="43.45734" lon="6.56651">
        <ele>16</ele>
        <time>2011-08-15T12:03:33Z</time>
      </trkpt>
      <trkpt lat="43.45727" lon="6.56642">
        <ele>16</ele>
        <time>2011-08-15T12:03:39Z</time>
      </trkpt>
      <trkpt lat="43.45719" lon="6.56635">
        <ele>16</ele>
        <time>2011-08-15T12:03:45Z</time>
      </trkpt>
      <trkpt lat="43.45712" lon="6.56628">
        <ele>16</ele>
        <time>2011-08-15T12:03:51Z</time>
      </trkpt>
      <trkpt lat="43.45704" lon="6.5662">
        <ele>16</ele>
        <time>2011-08-15T12:03:57Z</time>
      </trkpt>
      <trkpt lat="43.45696" lon="6.56612">
        <ele>16</ele>
        <time>2011-08-15T12:04:01Z</time>
      </trkpt>
      <trkpt lat="43.45688" lon="6.56604">
        <ele>16</ele>
        <time>2011-08-15T12:04:07Z</time>
      </trkpt>
      <trkpt lat="43.45681" lon="6.56595">
        <ele>16</ele>
        <time>2011-08-15T12:04:13Z</time>
      </trkpt>
      <trkpt lat="43.45675" lon="6.56585">
        <ele>16</ele>
        <time>2011-08-15T12:04:19Z</time>
      </trkpt>
      <trkpt lat="43.45666" lon="6.56584">
        <ele>16</ele>
        <time>2011-08-15T12:04:28Z</time>
      </trkpt>
      <trkpt lat="43.45656" lon="6.56581">
        <ele>21</ele>
        <time>2011-08-15T12:04:35Z</time>
      </trkpt>
      <trkpt lat="43.45647" lon="6.5658">
        <ele>21</ele>
        <time>2011-08-15T12:04:39Z</time>
      </trkpt>
      <trkpt lat="43.45635" lon="6.56579">
        <ele>21</ele>
        <time>2011-08-15T12:04:46Z</time>
      </trkpt>
      <trkpt lat="43.45626" lon="6.56572">
        <ele>21</ele>
        <time>2011-08-15T12:04:54Z</time>
      </trkpt>
      <trkpt lat="43.45617" lon="6.56569">
        <ele>27</ele>
        <time>2011-08-15T12:04:59Z</time>
      </trkpt>
      <trkpt lat="43.45605" lon="6.56568">
        <ele>27</ele>
        <time>2011-08-15T12:05:04Z</time>
      </trkpt>
      <trkpt lat="43.45596" lon="6.56563">
        <ele>27</ele>
        <time>2011-08-15T12:05:08Z</time>
      </trkpt>
      <trkpt lat="43.45586" lon="6.56561">
        <ele>27</ele>
        <time>2011-08-15T12:05:14Z</time>
      </trkpt>
      <trkpt lat="43.45576" lon="6.5656">
        <ele>20</ele>
        <time>2011-08-15T12:05:20Z</time>
      </trkpt>
      <trkpt lat="43.45566" lon="6.56563">
        <ele>20</ele>
        <time>2011-08-15T12:05:28Z</time>
      </trkpt>
      <trkpt lat="43.45556" lon="6.56563">
        <ele>12</ele>
        <time>2011-08-15T12:05:34Z</time>
      </trkpt>
      <trkpt lat="43.45547" lon="6.5656">
        <ele>12</ele>
        <time>2011-08-15T12:05:41Z</time>
      </trkpt>
      <trkpt lat="43.45539" lon="6.56565">
        <ele>19</ele>
        <time>2011-08-15T12:05:48Z</time>
      </trkpt>
      <trkpt lat="43.45528" lon="6.56568">
        <ele>19</ele>
        <time>2011-08-15T12:05:52Z</time>
      </trkpt>
      <trkpt lat="43.45519" lon="6.56566">
        <ele>19</ele>
        <time>2011-08-15T12:05:58Z</time>
      </trkpt>
      <trkpt lat="43.4551" lon="6.56568">
        <ele>25</ele>
        <time>2011-08-15T12:06:03Z</time>
      </trkpt>
      <trkpt lat="43.45502" lon="6.56576">
        <ele>34</ele>
        <time>2011-08-15T12:06:09Z</time>
      </trkpt>
      <trkpt lat="43.45493" lon="6.56582">
        <ele>34</ele>
        <time>2011-08-15T12:06:16Z</time>
      </trkpt>
      <trkpt lat="43.45487" lon="6.56591">
        <ele>29</ele>
        <time>2011-08-15T12:06:24Z</time>
      </trkpt>
      <trkpt lat="43.45479" lon="6.56598">
        <ele>29</ele>
        <time>2011-08-15T12:06:29Z</time>
      </trkpt>
      <trkpt lat="43.45471" lon="6.56603">
        <ele>29</ele>
        <time>2011-08-15T12:06:33Z</time>
      </trkpt>
      <trkpt lat="43.45462" lon="6.5661">
        <ele>17</ele>
        <time>2011-08-15T12:06:42Z</time>
      </trkpt>
      <trkpt lat="43.45451" lon="6.56614">
        <ele>30</ele>
        <time>2011-08-15T12:06:47Z</time>
      </trkpt>
      <trkpt lat="43.45442" lon="6.56617">
        <ele>37</ele>
        <time>2011-08-15T12:06:51Z</time>
      </trkpt>
      <trkpt lat="43.45433" lon="6.5661">
        <ele>37</ele>
        <time>2011-08-15T12:07:02Z</time>
      </trkpt>
      <trkpt lat="43.45422" lon="6.56608">
        <ele>26</ele>
        <time>2011-08-15T12:07:09Z</time>
      </trkpt>
      <trkpt lat="43.45412" lon="6.5661">
        <ele>26</ele>
        <time>2011-08-15T12:07:14Z</time>
      </trkpt>
      <trkpt lat="43.45401" lon="6.56611">
        <ele>13.6</ele>
        <time>2011-08-15T12:07:28Z</time>
      </trkpt>
      <trkpt lat="43.45391" lon="6.56607">
        <ele>14.2</ele>
        <time>2011-08-15T12:07:34Z</time>
      </trkpt>
      <trkpt lat="43.4538" lon="6.56607">
        <ele>14.5</ele>
        <time>2011-08-15T12:07:38Z</time>
      </trkpt>
      <trkpt lat="43.45369" lon="6.56606">
        <ele>7</ele>
        <time>2011-08-15T12:07:41Z</time>
      </trkpt>
      <trkpt lat="43.45364" lon="6.56595">
        <ele>13</ele>
        <time>2011-08-15T12:07:47Z</time>
      </trkpt>
      <trkpt lat="43.45356" lon="6.56589">
        <ele>23</ele>
        <time>2011-08-15T12:07:53Z</time>
      </trkpt>
      <trkpt lat="43.45348" lon="6.5658">
        <ele>23</ele>
        <time>2011-08-15T12:08:10Z</time>
      </trkpt>
      <trkpt lat="43.4534" lon="6.56576">
        <ele>23</ele>
        <time>2011-08-15T12:08:20Z</time>
      </trkpt>
      <trkpt lat="43.4533" lon="6.56572">
        <ele>43</ele>
        <time>2011-08-15T12:08:30Z</time>
      </trkpt>
      <trkpt lat="43.45321" lon="6.5657">
        <ele>43</ele>
        <time>2011-08-15T12:08:38Z</time>
      </trkpt>
      <trkpt lat="43.45313" lon="6.56563">
        <ele>43</ele>
        <time>2011-08-15T12:08:42Z</time>
      </trkpt>
      <trkpt lat="43.45304" lon="6.56561">
        <ele>43</ele>
        <time>2011-08-15T12:08:45Z</time>
      </trkpt>
      <trkpt lat="43.45293" lon="6.56561">
        <ele>43</ele>
        <time>2011-08-15T12:08:48Z</time>
      </trkpt>
      <trkpt lat="43.45287" lon="6.5655">
        <ele>43</ele>
        <time>2011-08-15T12:08:56Z</time>
      </trkpt>
      <trkpt lat="43.45289" lon="6.56536">
        <ele>43</ele>
        <time>2011-08-15T12:09:03Z</time>
      </trkpt>
      <trkpt lat="43.45292" lon="6.56525">
        <ele>43</ele>
        <time>2011-08-15T12:09:12Z</time>
      </trkpt>
      <trkpt lat="43.45289" lon="6.56511">
        <ele>43</ele>
        <time>2011-08-15T12:09:18Z</time>
      </trkpt>
      <trkpt lat="43.45291" lon="6.56497">
        <ele>43</ele>
        <time>2011-08-15T12:09:27Z</time>
      </trkpt>
      <trkpt lat="43.45295" lon="6.56485">
        <ele>43</ele>
        <time>2011-08-15T12:09:32Z</time>
      </trkpt>
      <trkpt lat="43.453" lon="6.56472">
        <ele>38</ele>
        <time>2011-08-15T12:09:38Z</time>
      </trkpt>
      <trkpt lat="43.45302" lon="6.56457">
        <ele>38</ele>
        <time>2011-08-15T12:09:45Z</time>
      </trkpt>
      <trkpt lat="43.45302" lon="6.56443">
        <ele>38</ele>
        <time>2011-08-15T12:09:51Z</time>
      </trkpt>
      <trkpt lat="43.45304" lon="6.56429">
        <ele>38</ele>
        <time>2011-08-15T12:09:57Z</time>
      </trkpt>
      <trkpt lat="43.45304" lon="6.56414">
        <ele>29</ele>
        <time>2011-08-15T12:10:02Z</time>
      </trkpt>
      <trkpt lat="43.45306" lon="6.56401">
        <ele>22</ele>
        <time>2011-08-15T12:10:06Z</time>
      </trkpt>
      <trkpt lat="43.45304" lon="6.56387">
        <ele>14</ele>
        <time>2011-08-15T12:10:11Z</time>
      </trkpt>
      <trkpt lat="43.45299" lon="6.56376">
        <ele>19</ele>
        <time>2011-08-15T12:10:18Z</time>
      </trkpt>
      <trkpt lat="43.45295" lon="6.56363">
        <ele>19</ele>
        <time>2011-08-15T12:10:23Z</time>
      </trkpt>
      <trkpt lat="43.45295" lon="6.5635">
        <ele>13</ele>
        <time>2011-08-15T12:10:30Z</time>
      </trkpt>
      <trkpt lat="43.45293" lon="6.56337">
        <ele>13</ele>
        <time>2011-08-15T12:10:39Z</time>
      </trkpt>
      <trkpt lat="43.4529" lon="6.56324">
        <ele>6</ele>
        <time>2011-08-15T12:10:44Z</time>
      </trkpt>
      <trkpt lat="43.45283" lon="6.56315">
        <ele>6</ele>
        <time>2011-08-15T12:10:50Z</time>
      </trkpt>
      <trkpt lat="43.45278" lon="6.56303">
        <ele>22</ele>
        <time>2011-08-15T12:10:59Z</time>
      </trkpt>
      <trkpt lat="43.45268" lon="6.563">
        <ele>22</ele>
        <time>2011-08-15T12:11:04Z</time>
      </trkpt>
      <trkpt lat="43.4526" lon="6.56293">
        <ele>22</ele>
        <time>2011-08-15T12:11:10Z</time>
      </trkpt>
      <trkpt lat="43.45253" lon="6.56284">
        <ele>22</ele>
        <time>2011-08-15T12:11:16Z</time>
      </trkpt>
      <trkpt lat="43.45251" lon="6.56271">
        <ele>22</ele>
        <time>2011-08-15T12:11:24Z</time>
      </trkpt>
      <trkpt lat="43.45243" lon="6.56264">
        <ele>22</ele>
        <time>2011-08-15T12:11:28Z</time>
      </trkpt>
      <trkpt lat="43.45238" lon="6.56253">
        <ele>22</ele>
        <time>2011-08-15T12:11:34Z</time>
      </trkpt>
      <trkpt lat="43.4523" lon="6.56244">
        <ele>22</ele>
        <time>2011-08-15T12:11:40Z</time>
      </trkpt>
      <trkpt lat="43.45224" lon="6.56233">
        <ele>27</ele>
        <time>2011-08-15T12:11:51Z</time>
      </trkpt>
      <trkpt lat="43.45219" lon="6.56223">
        <ele>27</ele>
        <time>2011-08-15T12:11:58Z</time>
      </trkpt>
      <trkpt lat="43.45212" lon="6.56212">
        <ele>27</ele>
        <time>2011-08-15T12:12:04Z</time>
      </trkpt>
      <trkpt lat="43.45204" lon="6.56204">
        <ele>34</ele>
        <time>2011-08-15T12:12:12Z</time>
      </trkpt>
      <trkpt lat="43.45198" lon="6.56194">
        <ele>34</ele>
        <time>2011-08-15T12:12:16Z</time>
      </trkpt>
      <trkpt lat="43.45191" lon="6.56184">
        <ele>34</ele>
        <time>2011-08-15T12:12:22Z</time>
      </trkpt>
      <trkpt lat="43.45185" lon="6.56174">
        <ele>34</ele>
        <time>2011-08-15T12:12:27Z</time>
      </trkpt>
      <trkpt lat="43.45183" lon="6.5616">
        <ele>34</ele>
        <time>2011-08-15T12:12:34Z</time>
      </trkpt>
      <trkpt lat="43.45176" lon="6.5615">
        <ele>27</ele>
        <time>2011-08-15T12:12:39Z</time>
      </trkpt>
      <trkpt lat="43.4517" lon="6.5614">
        <ele>27</ele>
        <time>2011-08-15T12:12:43Z</time>
      </trkpt>
      <trkpt lat="43.45164" lon="6.56131">
        <ele>27</ele>
        <time>2011-08-15T12:12:50Z</time>
      </trkpt>
      <trkpt lat="43.4516" lon="6.56119">
        <ele>27</ele>
        <time>2011-08-15T12:12:55Z</time>
      </trkpt>
      <trkpt lat="43.4516" lon="6.56105">
        <ele>27</ele>
        <time>2011-08-15T12:13:00Z</time>
      </trkpt>
      <trkpt lat="43.45157" lon="6.56094">
        <ele>42</ele>
        <time>2011-08-15T12:13:10Z</time>
      </trkpt>
      <trkpt lat="43.45158" lon="6.5608">
        <ele>52</ele>
        <time>2011-08-15T12:13:18Z</time>
      </trkpt>
      <trkpt lat="43.45158" lon="6.56068">
        <ele>66</ele>
        <time>2011-08-15T12:13:28Z</time>
      </trkpt>
      <trkpt lat="43.4516" lon="6.56055">
        <ele>74</ele>
        <time>2011-08-15T12:13:39Z</time>
      </trkpt>
      <trkpt lat="43.45164" lon="6.56043">
        <ele>74</ele>
        <time>2011-08-15T12:13:47Z</time>
      </trkpt>
      <trkpt lat="43.45168" lon="6.56031">
        <ele>74</ele>
        <time>2011-08-15T12:13:53Z</time>
      </trkpt>
      <trkpt lat="43.45169" lon="6.56017">
        <ele>74</ele>
        <time>2011-08-15T12:14:00Z</time>
      </trkpt>
      <trkpt lat="43.4517" lon="6.56003">
        <ele>66</ele>
        <time>2011-08-15T12:14:07Z</time>
      </trkpt>
      <trkpt lat="43.45171" lon="6.55987">
        <ele>55</ele>
        <time>2011-08-15T12:14:14Z</time>
      </trkpt>
      <trkpt lat="43.45174" lon="6.55975">
        <ele>49</ele>
        <time>2011-08-15T12:14:17Z</time>
      </trkpt>
      <trkpt lat="43.45173" lon="6.5596">
        <ele>38</ele>
        <time>2011-08-15T12:14:23Z</time>
      </trkpt>
      <trkpt lat="43.45169" lon="6.55949">
        <ele>32</ele>
        <time>2011-08-15T12:14:25Z</time>
      </trkpt>
      <trkpt lat="43.45162" lon="6.55938">
        <ele>32</ele>
        <time>2011-08-15T12:14:32Z</time>
      </trkpt>
      <trkpt lat="43.45155" lon="6.5593">
        <ele>24</ele>
        <time>2011-08-15T12:14:38Z</time>
      </trkpt>
      <trkpt lat="43.45149" lon="6.5592">
        <ele>24</ele>
        <time>2011-08-15T12:14:50Z</time>
      </trkpt>
      <trkpt lat="43.45143" lon="6.55909">
        <ele>24</ele>
        <time>2011-08-15T12:14:57Z</time>
      </trkpt>
      <trkpt lat="43.45135" lon="6.55901">
        <ele>29</ele>
        <time>2011-08-15T12:15:08Z</time>
      </trkpt>
      <trkpt lat="43.45128" lon="6.55892">
        <ele>29</ele>
        <time>2011-08-15T12:15:19Z</time>
      </trkpt>
      <trkpt lat="43.45123" lon="6.55882">
        <ele>29</ele>
        <time>2011-08-15T12:15:26Z</time>
      </trkpt>
      <trkpt lat="43.45118" lon="6.55872">
        <ele>29</ele>
        <time>2011-08-15T12:15:34Z</time>
      </trkpt>
      <trkpt lat="43.45115" lon="6.55859">
        <ele>24</ele>
        <time>2011-08-15T12:15:40Z</time>
      </trkpt>
      <trkpt lat="43.45105" lon="6.55857">
        <ele>24</ele>
        <time>2011-08-15T12:15:48Z</time>
      </trkpt>
      <trkpt lat="43.45094" lon="6.55856">
        <ele>17</ele>
        <time>2011-08-15T12:15:54Z</time>
      </trkpt>
      <trkpt lat="43.45085" lon="6.55856">
        <ele>23</ele>
        <time>2011-08-15T12:15:59Z</time>
      </trkpt>
      <trkpt lat="43.45076" lon="6.55857">
        <ele>23</ele>
        <time>2011-08-15T12:16:03Z</time>
      </trkpt>
      <trkpt lat="43.45067" lon="6.55861">
        <ele>32</ele>
        <time>2011-08-15T12:16:07Z</time>
      </trkpt>
      <trkpt lat="43.45058" lon="6.55862">
        <ele>32</ele>
        <time>2011-08-15T12:16:14Z</time>
      </trkpt>
      <trkpt lat="43.45052" lon="6.55852">
        <ele>32</ele>
        <time>2011-08-15T12:16:27Z</time>
      </trkpt>
      <trkpt lat="43.45043" lon="6.55847">
        <ele>32</ele>
        <time>2011-08-15T12:16:36Z</time>
      </trkpt>
      <trkpt lat="43.45035" lon="6.55842">
        <ele>13</ele>
        <time>2011-08-15T12:16:51Z</time>
      </trkpt>
      <trkpt lat="43.45028" lon="6.55849">
        <ele>18</ele>
        <time>2011-08-15T12:19:34Z</time>
      </trkpt>
      <trkpt lat="43.45017" lon="6.55847">
        <ele>18</ele>
        <time>2011-08-15T12:19:41Z</time>
      </trkpt>
      <trkpt lat="43.45007" lon="6.5585">
        <ele>18</ele>
        <time>2011-08-15T12:19:47Z</time>
      </trkpt>
      <trkpt lat="43.44997" lon="6.55849">
        <ele>18</ele>
        <time>2011-08-15T12:19:54Z</time>
      </trkpt>
      <trkpt lat="43.44988" lon="6.55849">
        <ele>18</ele>
        <time>2011-08-15T12:20:00Z</time>
      </trkpt>
      <trkpt lat="43.44977" lon="6.55847">
        <ele>18</ele>
        <time>2011-08-15T12:20:06Z</time>
      </trkpt>
      <trkpt lat="43.44967" lon="6.55847">
        <ele>18</ele>
        <time>2011-08-15T12:20:13Z</time>
      </trkpt>
      <trkpt lat="43.44957" lon="6.55847">
        <ele>13</ele>
        <time>2011-08-15T12:20:21Z</time>
      </trkpt>
      <trkpt lat="43.44947" lon="6.55848">
        <ele>13</ele>
        <time>2011-08-15T12:20:27Z</time>
      </trkpt>
      <trkpt lat="43.44937" lon="6.55849">
        <ele>13</ele>
        <time>2011-08-15T12:20:33Z</time>
      </trkpt>
      <trkpt lat="43.44927" lon="6.5585">
        <ele>13</ele>
        <time>2011-08-15T12:20:38Z</time>
      </trkpt>
      <trkpt lat="43.44918" lon="6.55852">
        <ele>13</ele>
        <time>2011-08-15T12:20:44Z</time>
      </trkpt>
      <trkpt lat="43.44908" lon="6.55852">
        <ele>13</ele>
        <time>2011-08-15T12:20:51Z</time>
      </trkpt>
      <trkpt lat="43.44899" lon="6.55851">
        <ele>13</ele>
        <time>2011-08-15T12:20:57Z</time>
      </trkpt>
      <trkpt lat="43.44888" lon="6.55852">
        <ele>13</ele>
        <time>2011-08-15T12:21:03Z</time>
      </trkpt>
      <trkpt lat="43.44878" lon="6.55852">
        <ele>13</ele>
        <time>2011-08-15T12:21:10Z</time>
      </trkpt>
      <trkpt lat="43.44867" lon="6.55855">
        <ele>13</ele>
        <time>2011-08-15T12:21:16Z</time>
      </trkpt>
      <trkpt lat="43.44858" lon="6.55857">
        <ele>13</ele>
        <time>2011-08-15T12:21:22Z</time>
      </trkpt>
      <trkpt lat="43.44848" lon="6.55859">
        <ele>13</ele>
        <time>2011-08-15T12:21:28Z</time>
      </trkpt>
      <trkpt lat="43.44838" lon="6.55858">
        <ele>13</ele>
        <time>2011-08-15T12:21:34Z</time>
      </trkpt>
      <trkpt lat="43.44829" lon="6.5586">
        <ele>13</ele>
        <time>2011-08-15T12:21:40Z</time>
      </trkpt>
      <trkpt lat="43.4482" lon="6.55861">
        <ele>13</ele>
        <time>2011-08-15T12:21:48Z</time>
      </trkpt>
      <trkpt lat="43.4481" lon="6.55863">
        <ele>13</ele>
        <time>2011-08-15T12:21:54Z</time>
      </trkpt>
      <trkpt lat="43.448" lon="6.55865">
        <ele>13</ele>
        <time>2011-08-15T12:22:00Z</time>
      </trkpt>
      <trkpt lat="43.44791" lon="6.55868">
        <ele>13</ele>
        <time>2011-08-15T12:22:05Z</time>
      </trkpt>
      <trkpt lat="43.44782" lon="6.5587">
        <ele>18</ele>
        <time>2011-08-15T12:22:10Z</time>
      </trkpt>
      <trkpt lat="43.44772" lon="6.55872">
        <ele>18</ele>
        <time>2011-08-15T12:22:17Z</time>
      </trkpt>
      <trkpt lat="43.44761" lon="6.55875">
        <ele>18</ele>
        <time>2011-08-15T12:22:23Z</time>
      </trkpt>
      <trkpt lat="43.44752" lon="6.55877">
        <ele>18</ele>
        <time>2011-08-15T12:22:29Z</time>
      </trkpt>
      <trkpt lat="43.44743" lon="6.5588">
        <ele>23</ele>
        <time>2011-08-15T12:22:34Z</time>
      </trkpt>
      <trkpt lat="43.44732" lon="6.55881">
        <ele>23</ele>
        <time>2011-08-15T12:22:40Z</time>
      </trkpt>
      <trkpt lat="43.44723" lon="6.5588">
        <ele>23</ele>
        <time>2011-08-15T12:22:47Z</time>
      </trkpt>
      <trkpt lat="43.44712" lon="6.55877">
        <ele>12</ele>
        <time>2011-08-15T12:22:55Z</time>
      </trkpt>
      <trkpt lat="43.44702" lon="6.55877">
        <ele>12</ele>
        <time>2011-08-15T12:23:03Z</time>
      </trkpt>
      <trkpt lat="43.44692" lon="6.55877">
        <ele>12</ele>
        <time>2011-08-15T12:23:09Z</time>
      </trkpt>
      <trkpt lat="43.44683" lon="6.55881">
        <ele>12</ele>
        <time>2011-08-15T12:23:15Z</time>
      </trkpt>
      <trkpt lat="43.44672" lon="6.55881">
        <ele>12</ele>
        <time>2011-08-15T12:23:23Z</time>
      </trkpt>
      <trkpt lat="43.44662" lon="6.55881">
        <ele>12</ele>
        <time>2011-08-15T12:23:29Z</time>
      </trkpt>
      <trkpt lat="43.44653" lon="6.55882">
        <ele>12</ele>
        <time>2011-08-15T12:23:34Z</time>
      </trkpt>
      <trkpt lat="43.44643" lon="6.55882">
        <ele>19</ele>
        <time>2011-08-15T12:23:40Z</time>
      </trkpt>
      <trkpt lat="43.44633" lon="6.55882">
        <ele>19</ele>
        <time>2011-08-15T12:23:55Z</time>
      </trkpt>
      <trkpt lat="43.44624" lon="6.55881">
        <ele>28</ele>
        <time>2011-08-15T12:24:00Z</time>
      </trkpt>
      <trkpt lat="43.44615" lon="6.55882">
        <ele>28</ele>
        <time>2011-08-15T12:24:04Z</time>
      </trkpt>
      <trkpt lat="43.44605" lon="6.55882">
        <ele>28</ele>
        <time>2011-08-15T12:24:09Z</time>
      </trkpt>
      <trkpt lat="43.44596" lon="6.55877">
        <ele>28</ele>
        <time>2011-08-15T12:24:16Z</time>
      </trkpt>
      <trkpt lat="43.44588" lon="6.55873">
        <ele>28</ele>
        <time>2011-08-15T12:24:22Z</time>
      </trkpt>
      <trkpt lat="43.44579" lon="6.55868">
        <ele>22</ele>
        <time>2011-08-15T12:24:28Z</time>
      </trkpt>
      <trkpt lat="43.4457" lon="6.55865">
        <ele>16</ele>
        <time>2011-08-15T12:24:35Z</time>
      </trkpt>
      <trkpt lat="43.44559" lon="6.55865">
        <ele>16</ele>
        <time>2011-08-15T12:24:41Z</time>
      </trkpt>
      <trkpt lat="43.44549" lon="6.5587">
        <ele>30</ele>
        <time>2011-08-15T12:24:47Z</time>
      </trkpt>
      <trkpt lat="43.4454" lon="6.55868">
        <ele>30</ele>
        <time>2011-08-15T12:24:52Z</time>
      </trkpt>
      <trkpt lat="43.44531" lon="6.55861">
        <ele>23</ele>
        <time>2011-08-15T12:25:00Z</time>
      </trkpt>
      <trkpt lat="43.44522" lon="6.5586">
        <ele>23</ele>
        <time>2011-08-15T12:25:06Z</time>
      </trkpt>
      <trkpt lat="43.44512" lon="6.55856">
        <ele>23</ele>
        <time>2011-08-15T12:25:12Z</time>
      </trkpt>
      <trkpt lat="43.44503" lon="6.55858">
        <ele>29</ele>
        <time>2011-08-15T12:25:19Z</time>
      </trkpt>
      <trkpt lat="43.44493" lon="6.55856">
        <ele>29</ele>
        <time>2011-08-15T12:25:26Z</time>
      </trkpt>
      <trkpt lat="43.44484" lon="6.55854">
        <ele>29</ele>
        <time>2011-08-15T12:25:33Z</time>
      </trkpt>
      <trkpt lat="43.44475" lon="6.55855">
        <ele>29</ele>
        <time>2011-08-15T12:25:41Z</time>
      </trkpt>
      <trkpt lat="43.44465" lon="6.55855">
        <ele>29</ele>
        <time>2011-08-15T12:25:49Z</time>
      </trkpt>
      <trkpt lat="43.44456" lon="6.5585">
        <ele>29</ele>
        <time>2011-08-15T12:25:57Z</time>
      </trkpt>
      <trkpt lat="43.44447" lon="6.55849">
        <ele>37</ele>
        <time>2011-08-15T12:26:04Z</time>
      </trkpt>
      <trkpt lat="43.44437" lon="6.55852">
        <ele>50</ele>
        <time>2011-08-15T12:26:09Z</time>
      </trkpt>
      <trkpt lat="43.44427" lon="6.55851">
        <ele>50</ele>
        <time>2011-08-15T12:26:16Z</time>
      </trkpt>
      <trkpt lat="43.44416" lon="6.5585">
        <ele>57</ele>
        <time>2011-08-15T12:26:23Z</time>
      </trkpt>
      <trkpt lat="43.44407" lon="6.55847">
        <ele>64</ele>
        <time>2011-08-15T12:26:30Z</time>
      </trkpt>
      <trkpt lat="43.44398" lon="6.55845">
        <ele>58</ele>
        <time>2011-08-15T12:26:36Z</time>
      </trkpt>
      <trkpt lat="43.44389" lon="6.5584">
        <ele>48</ele>
        <time>2011-08-15T12:26:46Z</time>
      </trkpt>
      <trkpt lat="43.4438" lon="6.55838">
        <ele>48</ele>
        <time>2011-08-15T12:26:50Z</time>
      </trkpt>
      <trkpt lat="43.4437" lon="6.55837">
        <ele>33</ele>
        <time>2011-08-15T12:27:00Z</time>
      </trkpt>
      <trkpt lat="43.44361" lon="6.55831">
        <ele>15</ele>
        <time>2011-08-15T12:27:22Z</time>
      </trkpt>
      <trkpt lat="43.44353" lon="6.55828">
        <ele>15</ele>
        <time>2011-08-15T12:27:44Z</time>
      </trkpt>
      <trkpt lat="43.44347" lon="6.55816">
        <ele>15</ele>
        <time>2011-08-15T12:27:52Z</time>
      </trkpt>
      <trkpt lat="43.44342" lon="6.55805">
        <ele>15</ele>
        <time>2011-08-15T12:28:04Z</time>
      </trkpt>
      <trkpt lat="43.44332" lon="6.55802">
        <ele>21</ele>
        <time>2011-08-15T12:28:16Z</time>
      </trkpt>
      <trkpt lat="43.44325" lon="6.55794">
        <ele>12</ele>
        <time>2011-08-15T12:28:56Z</time>
      </trkpt>
      <trkpt lat="43.44317" lon="6.55801">
        <ele>12</ele>
        <time>2011-08-15T12:30:48Z</time>
      </trkpt>
      <trkpt lat="43.44309" lon="6.55796">
        <ele>12</ele>
        <time>2011-08-15T12:31:02Z</time>
      </trkpt>
      <trkpt lat="43.44304" lon="6.55786">
        <ele>12</ele>
        <time>2011-08-15T12:31:14Z</time>
      </trkpt>
      <trkpt lat="43.44297" lon="6.55777">
        <ele>12</ele>
        <time>2011-08-15T12:31:26Z</time>
      </trkpt>
      <trkpt lat="43.44296" lon="6.55765">
        <ele>12</ele>
        <time>2011-08-15T12:31:40Z</time>
      </trkpt>
      <trkpt lat="43.44294" lon="6.55752">
        <ele>17</ele>
        <time>2011-08-15T12:31:55Z</time>
      </trkpt>
      <trkpt lat="43.44296" lon="6.5574">
        <ele>17</ele>
        <time>2011-08-15T12:32:11Z</time>
      </trkpt>
      <trkpt lat="43.44296" lon="6.55727">
        <ele>17</ele>
        <time>2011-08-15T12:32:27Z</time>
      </trkpt>
      <trkpt lat="43.44296" lon="6.55715">
        <ele>17</ele>
        <time>2011-08-15T12:32:55Z</time>
      </trkpt>
      <trkpt lat="43.44304" lon="6.55707">
        <ele>17</ele>
        <time>2011-08-15T12:33:30Z</time>
      </trkpt>
      <trkpt lat="43.44311" lon="6.557">
        <ele>17</ele>
        <time>2011-08-15T12:34:02Z</time>
      </trkpt>
      <trkpt lat="43.44304" lon="6.55689">
        <ele>29</ele>
        <time>2011-08-15T12:34:57Z</time>
      </trkpt>
      <trkpt lat="43.44306" lon="6.55677">
        <ele>29</ele>
        <time>2011-08-15T12:35:03Z</time>
      </trkpt>
      <trkpt lat="43.44309" lon="6.55664">
        <ele>24</ele>
        <time>2011-08-15T12:35:10Z</time>
      </trkpt>
      <trkpt lat="43.44313" lon="6.55652">
        <ele>24</ele>
        <time>2011-08-15T12:35:17Z</time>
      </trkpt>
      <trkpt lat="43.44321" lon="6.55644">
        <ele>24</ele>
        <time>2011-08-15T12:35:23Z</time>
      </trkpt>
      <trkpt lat="43.44327" lon="6.55634">
        <ele>24</ele>
        <time>2011-08-15T12:35:29Z</time>
      </trkpt>
      <trkpt lat="43.44333" lon="6.55624">
        <ele>15</ele>
        <time>2011-08-15T12:35:35Z</time>
      </trkpt>
      <trkpt lat="43.4434" lon="6.55615">
        <ele>15</ele>
        <time>2011-08-15T12:35:42Z</time>
      </trkpt>
      <trkpt lat="43.44346" lon="6.55604">
        <ele>15</ele>
        <time>2011-08-15T12:35:50Z</time>
      </trkpt>
      <trkpt lat="43.44351" lon="6.55592">
        <ele>15</ele>
        <time>2011-08-15T12:35:59Z</time>
      </trkpt>
      <trkpt lat="43.44359" lon="6.55582">
        <ele>15</ele>
        <time>2011-08-15T12:36:06Z</time>
      </trkpt>
      <trkpt lat="43.44364" lon="6.55571">
        <ele>15</ele>
        <time>2011-08-15T12:36:14Z</time>
      </trkpt>
      <trkpt lat="43.44371" lon="6.55561">
        <ele>21</ele>
        <time>2011-08-15T12:36:22Z</time>
      </trkpt>
      <trkpt lat="43.44379" lon="6.55554">
        <ele>21</ele>
        <time>2011-08-15T12:36:30Z</time>
      </trkpt>
      <trkpt lat="43.4438" lon="6.5554">
        <ele>21</ele>
        <time>2011-08-15T12:36:38Z</time>
      </trkpt>
      <trkpt lat="43.44385" lon="6.55528">
        <ele>21</ele>
        <time>2011-08-15T12:36:46Z</time>
      </trkpt>
      <trkpt lat="43.44386" lon="6.55514">
        <ele>16</ele>
        <time>2011-08-15T12:36:52Z</time>
      </trkpt>
      <trkpt lat="43.44389" lon="6.55503">
        <ele>16</ele>
        <time>2011-08-15T12:37:04Z</time>
      </trkpt>
      <trkpt lat="43.44396" lon="6.55494">
        <ele>16</ele>
        <time>2011-08-15T12:37:13Z</time>
      </trkpt>
      <trkpt lat="43.44402" lon="6.55485">
        <ele>16</ele>
        <time>2011-08-15T12:37:22Z</time>
      </trkpt>
      <trkpt lat="43.44404" lon="6.55472">
        <ele>22</ele>
        <time>2011-08-15T12:37:29Z</time>
      </trkpt>
      <trkpt lat="43.4441" lon="6.55461">
        <ele>22</ele>
        <time>2011-08-15T12:37:35Z</time>
      </trkpt>
      <trkpt lat="43.44415" lon="6.5545">
        <ele>22</ele>
        <time>2011-08-15T12:37:41Z</time>
      </trkpt>
      <trkpt lat="43.44417" lon="6.55438">
        <ele>22</ele>
        <time>2011-08-15T12:37:47Z</time>
      </trkpt>
      <trkpt lat="43.44421" lon="6.55426">
        <ele>22</ele>
        <time>2011-08-15T12:37:55Z</time>
      </trkpt>
      <trkpt lat="43.44419" lon="6.55413">
        <ele>22</ele>
        <time>2011-08-15T12:38:02Z</time>
      </trkpt>
      <trkpt lat="43.44423" lon="6.55401">
        <ele>22</ele>
        <time>2011-08-15T12:38:11Z</time>
      </trkpt>
      <trkpt lat="43.44423" lon="6.55388">
        <ele>29</ele>
        <time>2011-08-15T12:38:20Z</time>
      </trkpt>
      <trkpt lat="43.4442" lon="6.55376">
        <ele>29</ele>
        <time>2011-08-15T12:38:26Z</time>
      </trkpt>
      <trkpt lat="43.44416" lon="6.55363">
        <ele>29</ele>
        <time>2011-08-15T12:38:33Z</time>
      </trkpt>
      <trkpt lat="43.44414" lon="6.55349">
        <ele>29</ele>
        <time>2011-08-15T12:38:39Z</time>
      </trkpt>
      <trkpt lat="43.44412" lon="6.55335">
        <ele>29</ele>
        <time>2011-08-15T12:38:45Z</time>
      </trkpt>
      <trkpt lat="43.44406" lon="6.55324">
        <ele>29</ele>
        <time>2011-08-15T12:38:52Z</time>
      </trkpt>
      <trkpt lat="43.44402" lon="6.55312">
        <ele>29</ele>
        <time>2011-08-15T12:39:00Z</time>
      </trkpt>
      <trkpt lat="43.44399" lon="6.553">
        <ele>24</ele>
        <time>2011-08-15T12:39:07Z</time>
      </trkpt>
      <trkpt lat="43.44392" lon="6.55291">
        <ele>24</ele>
        <time>2011-08-15T12:39:14Z</time>
      </trkpt>
      <trkpt lat="43.44389" lon="6.55279">
        <ele>24</ele>
        <time>2011-08-15T12:39:22Z</time>
      </trkpt>
      <trkpt lat="43.44383" lon="6.55268">
        <ele>18</ele>
        <time>2011-08-15T12:39:29Z</time>
      </trkpt>
      <trkpt lat="43.44378" lon="6.55256">
        <ele>18</ele>
        <time>2011-08-15T12:39:37Z</time>
      </trkpt>
      <trkpt lat="43.44371" lon="6.55246">
        <ele>18</ele>
        <time>2011-08-15T12:39:45Z</time>
      </trkpt>
      <trkpt lat="43.44364" lon="6.55236">
        <ele>18</ele>
        <time>2011-08-15T12:39:52Z</time>
      </trkpt>
      <trkpt lat="43.44357" lon="6.55224">
        <ele>24</ele>
        <time>2011-08-15T12:39:58Z</time>
      </trkpt>
      <trkpt lat="43.44355" lon="6.55211">
        <ele>24</ele>
        <time>2011-08-15T12:40:04Z</time>
      </trkpt>
      <trkpt lat="43.44349" lon="6.55202">
        <ele>24</ele>
        <time>2011-08-15T12:40:09Z</time>
      </trkpt>
      <trkpt lat="43.44348" lon="6.55188">
        <ele>24</ele>
        <time>2011-08-15T12:40:15Z</time>
      </trkpt>
      <trkpt lat="43.44344" lon="6.55177">
        <ele>24</ele>
        <time>2011-08-15T12:40:21Z</time>
      </trkpt>
      <trkpt lat="43.44338" lon="6.55167">
        <ele>24</ele>
        <time>2011-08-15T12:40:28Z</time>
      </trkpt>
      <trkpt lat="43.44336" lon="6.55155">
        <ele>24</ele>
        <time>2011-08-15T12:41:03Z</time>
      </trkpt>
      <trkpt lat="43.44341" lon="6.55145">
        <ele>24</ele>
        <time>2011-08-15T12:43:24Z</time>
      </trkpt>
      <trkpt lat="43.44333" lon="6.55137">
        <ele>17</ele>
        <time>2011-08-15T12:45:48Z</time>
      </trkpt>
      <trkpt lat="43.44328" lon="6.55127">
        <ele>17</ele>
        <time>2011-08-15T12:46:00Z</time>
      </trkpt>
      <trkpt lat="43.44323" lon="6.55116">
        <ele>17</ele>
        <time>2011-08-15T12:46:17Z</time>
      </trkpt>
      <trkpt lat="43.44318" lon="6.55105">
        <ele>24</ele>
        <time>2011-08-15T12:46:52Z</time>
      </trkpt>
      <trkpt lat="43.44317" lon="6.55092">
        <ele>24</ele>
        <time>2011-08-15T12:46:58Z</time>
      </trkpt>
      <trkpt lat="43.44313" lon="6.5508">
        <ele>24</ele>
        <time>2011-08-15T12:47:08Z</time>
      </trkpt>
      <trkpt lat="43.44307" lon="6.5507">
        <ele>19</ele>
        <time>2011-08-15T12:47:32Z</time>
      </trkpt>
      <trkpt lat="43.44297" lon="6.55064">
        <ele>19</ele>
        <time>2011-08-15T12:47:40Z</time>
      </trkpt>
      <trkpt lat="43.44291" lon="6.55054">
        <ele>19</ele>
        <time>2011-08-15T12:47:46Z</time>
      </trkpt>
      <trkpt lat="43.44292" lon="6.55041">
        <ele>19</ele>
        <time>2011-08-15T12:47:55Z</time>
      </trkpt>
      <trkpt lat="43.44292" lon="6.55027">
        <ele>19</ele>
        <time>2011-08-15T12:48:02Z</time>
      </trkpt>
      <trkpt lat="43.44297" lon="6.55014">
        <ele>19</ele>
        <time>2011-08-15T12:48:09Z</time>
      </trkpt>
      <trkpt lat="43.44299" lon="6.55001">
        <ele>19</ele>
        <time>2011-08-15T12:48:16Z</time>
      </trkpt>
      <trkpt lat="43.44305" lon="6.5499">
        <ele>19</ele>
        <time>2011-08-15T12:48:22Z</time>
      </trkpt>
      <trkpt lat="43.4431" lon="6.54979">
        <ele>19</ele>
        <time>2011-08-15T12:48:28Z</time>
      </trkpt>
      <trkpt lat="43.44315" lon="6.54969">
        <ele>19</ele>
        <time>2011-08-15T12:48:35Z</time>
      </trkpt>
      <trkpt lat="43.44321" lon="6.54959">
        <ele>28</ele>
        <time>2011-08-15T12:48:41Z</time>
      </trkpt>
      <trkpt lat="43.44326" lon="6.54948">
        <ele>28</ele>
        <time>2011-08-15T12:48:47Z</time>
      </trkpt>
      <trkpt lat="43.44332" lon="6.54937">
        <ele>35</ele>
        <time>2011-08-15T12:48:55Z</time>
      </trkpt>
      <trkpt lat="43.44339" lon="6.54927">
        <ele>35</ele>
        <time>2011-08-15T12:49:00Z</time>
      </trkpt>
      <trkpt lat="43.44346" lon="6.54916">
        <ele>28</ele>
        <time>2011-08-15T12:49:08Z</time>
      </trkpt>
      <trkpt lat="43.44353" lon="6.54906">
        <ele>28</ele>
        <time>2011-08-15T12:49:17Z</time>
      </trkpt>
      <trkpt lat="43.44361" lon="6.54896">
        <ele>28</ele>
        <time>2011-08-15T12:49:24Z</time>
      </trkpt>
      <trkpt lat="43.44368" lon="6.54886">
        <ele>21</ele>
        <time>2011-08-15T12:49:32Z</time>
      </trkpt>
      <trkpt lat="43.44375" lon="6.54877">
        <ele>21</ele>
        <time>2011-08-15T12:49:39Z</time>
      </trkpt>
      <trkpt lat="43.44382" lon="6.54869">
        <ele>21</ele>
        <time>2011-08-15T12:49:46Z</time>
      </trkpt>
      <trkpt lat="43.44389" lon="6.54859">
        <ele>21</ele>
        <time>2011-08-15T12:49:53Z</time>
      </trkpt>
      <trkpt lat="43.44397" lon="6.54849">
        <ele>21</ele>
        <time>2011-08-15T12:49:59Z</time>
      </trkpt>
      <trkpt lat="43.44404" lon="6.5484">
        <ele>21</ele>
        <time>2011-08-15T12:50:07Z</time>
      </trkpt>
      <trkpt lat="43.44412" lon="6.54833">
        <ele>21</ele>
        <time>2011-08-15T12:50:14Z</time>
      </trkpt>
      <trkpt lat="43.4442" lon="6.54827">
        <ele>21</ele>
        <time>2011-08-15T12:50:21Z</time>
      </trkpt>
      <trkpt lat="43.44429" lon="6.5482">
        <ele>21</ele>
        <time>2011-08-15T12:50:29Z</time>
      </trkpt>
      <trkpt lat="43.44437" lon="6.54815">
        <ele>21</ele>
        <time>2011-08-15T12:50:35Z</time>
      </trkpt>
      <trkpt lat="43.44446" lon="6.54811">
        <ele>21</ele>
        <time>2011-08-15T12:50:43Z</time>
      </trkpt>
      <trkpt lat="43.44454" lon="6.54805">
        <ele>21</ele>
        <time>2011-08-15T12:50:50Z</time>
      </trkpt>
      <trkpt lat="43.44463" lon="6.548">
        <ele>21</ele>
        <time>2011-08-15T12:50:57Z</time>
      </trkpt>
      <trkpt lat="43.44472" lon="6.54794">
        <ele>21</ele>
        <time>2011-08-15T12:51:06Z</time>
      </trkpt>
      <trkpt lat="43.4448" lon="6.54787">
        <ele>21</ele>
        <time>2011-08-15T12:51:14Z</time>
      </trkpt>
      <trkpt lat="43.44488" lon="6.5478">
        <ele>21</ele>
        <time>2011-08-15T12:51:21Z</time>
      </trkpt>
      <trkpt lat="43.44497" lon="6.54777">
        <ele>21</ele>
        <time>2011-08-15T12:51:29Z</time>
      </trkpt>
      <trkpt lat="43.44507" lon="6.54774">
        <ele>21</ele>
        <time>2011-08-15T12:51:37Z</time>
      </trkpt>
      <trkpt lat="43.44516" lon="6.54773">
        <ele>21</ele>
        <time>2011-08-15T12:51:45Z</time>
      </trkpt>
      <trkpt lat="43.44526" lon="6.54776">
        <ele>21</ele>
        <time>2011-08-15T12:51:54Z</time>
      </trkpt>
      <trkpt lat="43.44536" lon="6.54776">
        <ele>21</ele>
        <time>2011-08-15T12:52:07Z</time>
      </trkpt>
      <trkpt lat="43.44546" lon="6.54778">
        <ele>21</ele>
        <time>2011-08-15T12:52:16Z</time>
      </trkpt>
      <trkpt lat="43.44556" lon="6.54778">
        <ele>21</ele>
        <time>2011-08-15T12:52:23Z</time>
      </trkpt>
      <trkpt lat="43.44565" lon="6.54775">
        <ele>21</ele>
        <time>2011-08-15T12:52:29Z</time>
      </trkpt>
      <trkpt lat="43.44575" lon="6.54777">
        <ele>21</ele>
        <time>2011-08-15T12:52:35Z</time>
      </trkpt>
      <trkpt lat="43.44584" lon="6.54781">
        <ele>21</ele>
        <time>2011-08-15T12:52:43Z</time>
      </trkpt>
      <trkpt lat="43.44593" lon="6.54781">
        <ele>21</ele>
        <time>2011-08-15T12:52:51Z</time>
      </trkpt>
      <trkpt lat="43.44601" lon="6.54778">
        <ele>13</ele>
        <time>2011-08-15T12:52:56Z</time>
      </trkpt>
      <trkpt lat="43.44611" lon="6.54776">
        <ele>13</ele>
        <time>2011-08-15T12:53:02Z</time>
      </trkpt>
      <trkpt lat="43.4462" lon="6.54778">
        <ele>13</ele>
        <time>2011-08-15T12:53:10Z</time>
      </trkpt>
      <trkpt lat="43.4463" lon="6.54778">
        <ele>13</ele>
        <time>2011-08-15T12:53:17Z</time>
      </trkpt>
      <trkpt lat="43.4464" lon="6.54779">
        <ele>21</ele>
        <time>2011-08-15T12:53:23Z</time>
      </trkpt>
      <trkpt lat="43.44648" lon="6.54787">
        <ele>21</ele>
        <time>2011-08-15T12:53:29Z</time>
      </trkpt>
      <trkpt lat="43.44657" lon="6.5479">
        <ele>21</ele>
        <time>2011-08-15T12:53:35Z</time>
      </trkpt>
      <trkpt lat="43.44666" lon="6.54794">
        <ele>21</ele>
        <time>2011-08-15T12:53:50Z</time>
      </trkpt>
      <trkpt lat="43.44675" lon="6.54794">
        <ele>21</ele>
        <time>2011-08-15T12:53:57Z</time>
      </trkpt>
      <trkpt lat="43.44685" lon="6.54795">
        <ele>21</ele>
        <time>2011-08-15T12:54:11Z</time>
      </trkpt>
      <trkpt lat="43.44692" lon="6.54788">
        <ele>21</ele>
        <time>2011-08-15T12:54:16Z</time>
      </trkpt>
      <trkpt lat="43.44702" lon="6.54787">
        <ele>21</ele>
        <time>2011-08-15T12:54:23Z</time>
      </trkpt>
      <trkpt lat="43.44711" lon="6.54787">
        <ele>21</ele>
        <time>2011-08-15T12:54:29Z</time>
      </trkpt>
      <trkpt lat="43.4472" lon="6.54789">
        <ele>26</ele>
        <time>2011-08-15T12:54:36Z</time>
      </trkpt>
      <trkpt lat="43.44729" lon="6.54792">
        <ele>26</ele>
        <time>2011-08-15T12:54:45Z</time>
      </trkpt>
      <trkpt lat="43.44738" lon="6.54787">
        <ele>19</ele>
        <time>2011-08-15T12:54:54Z</time>
      </trkpt>
      <trkpt lat="43.44747" lon="6.54784">
        <ele>19</ele>
        <time>2011-08-15T12:55:00Z</time>
      </trkpt>
      <trkpt lat="43.44756" lon="6.54784">
        <ele>19</ele>
        <time>2011-08-15T12:55:08Z</time>
      </trkpt>
      <trkpt lat="43.44766" lon="6.54783">
        <ele>19</ele>
        <time>2011-08-15T12:55:14Z</time>
      </trkpt>
      <trkpt lat="43.44773" lon="6.54773">
        <ele>19</ele>
        <time>2011-08-15T12:55:24Z</time>
      </trkpt>
      <trkpt lat="43.44779" lon="6.54763">
        <ele>19</ele>
        <time>2011-08-15T12:55:32Z</time>
      </trkpt>
      <trkpt lat="43.44782" lon="6.54752">
        <ele>30</ele>
        <time>2011-08-15T12:55:45Z</time>
      </trkpt>
      <trkpt lat="43.4479" lon="6.54745">
        <ele>30</ele>
        <time>2011-08-15T12:55:51Z</time>
      </trkpt>
      <trkpt lat="43.44793" lon="6.54732">
        <ele>30</ele>
        <time>2011-08-15T12:56:15Z</time>
      </trkpt>
      <trkpt lat="43.448" lon="6.54722">
        <ele>20</ele>
        <time>2011-08-15T12:56:19Z</time>
      </trkpt>
      <trkpt lat="43.44807" lon="6.5471">
        <ele>20</ele>
        <time>2011-08-15T12:56:25Z</time>
      </trkpt>
      <trkpt lat="43.44814" lon="6.54703">
        <ele>20</ele>
        <time>2011-08-15T12:56:31Z</time>
      </trkpt>
      <trkpt lat="43.44821" lon="6.54694">
        <ele>20</ele>
        <time>2011-08-15T12:56:39Z</time>
      </trkpt>
      <trkpt lat="43.4483" lon="6.5469">
        <ele>20</ele>
        <time>2011-08-15T12:56:47Z</time>
      </trkpt>
      <trkpt lat="43.44837" lon="6.54681">
        <ele>20</ele>
        <time>2011-08-15T12:56:55Z</time>
      </trkpt>
      <trkpt lat="43.4484" lon="6.54668">
        <ele>20</ele>
        <time>2011-08-15T12:57:03Z</time>
      </trkpt>
      <trkpt lat="43.4484" lon="6.54654">
        <ele>26</ele>
        <time>2011-08-15T12:57:12Z</time>
      </trkpt>
      <trkpt lat="43.44843" lon="6.54641">
        <ele>26</ele>
        <time>2011-08-15T12:57:20Z</time>
      </trkpt>
      <trkpt lat="43.44849" lon="6.5463">
        <ele>26</ele>
        <time>2011-08-15T12:57:28Z</time>
      </trkpt>
      <trkpt lat="43.44847" lon="6.54617">
        <ele>26</ele>
        <time>2011-08-15T12:57:40Z</time>
      </trkpt>
      <trkpt lat="43.44846" lon="6.54603">
        <ele>34</ele>
        <time>2011-08-15T12:57:48Z</time>
      </trkpt>
      <trkpt lat="43.44845" lon="6.54591">
        <ele>23</ele>
        <time>2011-08-15T12:57:58Z</time>
      </trkpt>
      <trkpt lat="43.44839" lon="6.5458">
        <ele>23</ele>
        <time>2011-08-15T12:58:35Z</time>
      </trkpt>
      <trkpt lat="43.44836" lon="6.54568">
        <ele>17</ele>
        <time>2011-08-15T12:58:51Z</time>
      </trkpt>
      <trkpt lat="43.44841" lon="6.54557">
        <ele>17</ele>
        <time>2011-08-15T12:59:06Z</time>
      </trkpt>
      <trkpt lat="43.44832" lon="6.54553">
        <ele>17</ele>
        <time>2011-08-15T12:59:29Z</time>
      </trkpt>
      <trkpt lat="43.44829" lon="6.54541">
        <ele>17</ele>
        <time>2011-08-15T12:59:43Z</time>
      </trkpt>
      <trkpt lat="43.44823" lon="6.54532">
        <ele>17</ele>
        <time>2011-08-15T12:59:54Z</time>
      </trkpt>
      <trkpt lat="43.44827" lon="6.54522">
        <ele>17</ele>
        <time>2011-08-15T13:00:14Z</time>
      </trkpt>
      <trkpt lat="43.44829" lon="6.54509">
        <ele>17</ele>
        <time>2011-08-15T13:01:06Z</time>
      </trkpt>
      <trkpt lat="43.44826" lon="6.54497">
        <ele>17</ele>
        <time>2011-08-15T13:01:13Z</time>
      </trkpt>
      <trkpt lat="43.44817" lon="6.54498">
        <ele>17</ele>
        <time>2011-08-15T13:01:19Z</time>
      </trkpt>
      <trkpt lat="43.44824" lon="6.54488">
        <ele>17</ele>
        <time>2011-08-15T13:01:37Z</time>
      </trkpt>
      <trkpt lat="43.44821" lon="6.54477">
        <ele>17</ele>
        <time>2011-08-15T13:01:52Z</time>
      </trkpt>
      <trkpt lat="43.44821" lon="6.54464">
        <ele>17</ele>
        <time>2011-08-15T13:02:04Z</time>
      </trkpt>
      <trkpt lat="43.44817" lon="6.54452">
        <ele>17</ele>
        <time>2011-08-15T13:02:19Z</time>
      </trkpt>
      <trkpt lat="43.44812" lon="6.54442">
        <ele>17</ele>
        <time>2011-08-15T13:02:46Z</time>
      </trkpt>
      <trkpt lat="43.44802" lon="6.54442">
        <ele>17</ele>
        <time>2011-08-15T13:03:24Z</time>
      </trkpt>
      <trkpt lat="43.44802" lon="6.54428">
        <ele>17</ele>
        <time>2011-08-15T13:04:21Z</time>
      </trkpt>
      <trkpt lat="43.448" lon="6.54415">
        <ele>17</ele>
        <time>2011-08-15T13:04:29Z</time>
      </trkpt>
      <trkpt lat="43.44808" lon="6.54407">
        <ele>17</ele>
        <time>2011-08-15T13:04:40Z</time>
      </trkpt>
      <trkpt lat="43.44801" lon="6.54398">
        <ele>17</ele>
        <time>2011-08-15T13:05:27Z</time>
      </trkpt>
      <trkpt lat="43.44795" lon="6.54389">
        <ele>17</ele>
        <time>2011-08-15T13:05:43Z</time>
      </trkpt>
      <trkpt lat="43.44788" lon="6.54381">
        <ele>17</ele>
        <time>2011-08-15T13:05:58Z</time>
      </trkpt>
      <trkpt lat="43.44781" lon="6.54372">
        <ele>24</ele>
        <time>2011-08-15T13:06:13Z</time>
      </trkpt>
      <trkpt lat="43.44776" lon="6.54361">
        <ele>24</ele>
        <time>2011-08-15T13:06:24Z</time>
      </trkpt>
      <trkpt lat="43.4477" lon="6.54351">
        <ele>24</ele>
        <time>2011-08-15T13:06:38Z</time>
      </trkpt>
      <trkpt lat="43.44763" lon="6.54343">
        <ele>24</ele>
        <time>2011-08-15T13:06:55Z</time>
      </trkpt>
      <trkpt lat="43.44754" lon="6.5434">
        <ele>24</ele>
        <time>2011-08-15T13:07:05Z</time>
      </trkpt>
      <trkpt lat="43.44745" lon="6.54345">
        <ele>30</ele>
        <time>2011-08-15T13:07:22Z</time>
      </trkpt>
      <trkpt lat="43.44738" lon="6.54336">
        <ele>21</ele>
        <time>2011-08-15T13:07:59Z</time>
      </trkpt>
      <trkpt lat="43.44729" lon="6.54338">
        <ele>21</ele>
        <time>2011-08-15T13:08:25Z</time>
      </trkpt>
      <trkpt lat="43.44721" lon="6.54332">
        <ele>21</ele>
        <time>2011-08-15T13:08:36Z</time>
      </trkpt>
      <trkpt lat="43.44731" lon="6.54338">
        <ele>14</ele>
        <time>2011-08-15T13:09:49Z</time>
      </trkpt>
      <trkpt lat="43.44722" lon="6.54341">
        <ele>14</ele>
        <time>2011-08-15T13:09:59Z</time>
      </trkpt>
      <trkpt lat="43.4473" lon="6.54337">
        <ele>14</ele>
        <time>2011-08-15T13:10:12Z</time>
      </trkpt>
    </trkseg>
  </trk>
</gpx>